sensor_id;sensor_type;location;lat;lon;timestamp;temperature;humidity
33139;DHT22;19501;50.948;5.316;2023-09-19T00:01:42;16.00;99.90
33139;DHT22;19501;50.948;5.316;2023-09-19T00:04:10;16.00;99.90
33139;DHT22;19501;50.948;5.316;2023-09-19T00:06:39;15.90;99.90
33139;DHT22;19501;50.948;5.316;2023-09-19T00:09:09;15.90;99.90
33139;DHT22;19501;50.948;5.316;2023-09-19T00:11:36;15.90;99.90
33139;DHT22;19501;50.948;5.316;2023-09-19T00:14:03;15.90;99.90
33139;DHT22;19501;50.948;5.316;2023-09-19T00:16:30;15.80;99.90
33139;DHT22;19501;50.948;5.316;2023-09-19T00:18:55;15.90;99.90
33139;DHT22;19501;50.948;5.316;2023-09-19T00:21:21;15.90;99.90
33139;DHT22;19501;50.948;5.316;2023-09-19T00:23:47;15.80;99.90
33139;DHT22;19501;50.948;5.316;2023-09-19T00:26:13;15.80;99.90
33139;DHT22;19501;50.948;5.316;2023-09-19T00:28:39;15.90;99.90
33139;DHT22;19501;50.948;5.316;2023-09-19T00:31:07;15.80;99.90
33139;DHT22;19501;50.948;5.316;2023-09-19T00:33:34;15.80;99.90
33139;DHT22;19501;50.948;5.316;2023-09-19T00:35:59;15.80;99.90
33139;DHT22;19501;50.948;5.316;2023-09-19T00:38:27;15.80;99.90
33139;DHT22;19501;50.948;5.316;2023-09-19T00:40:54;15.90;99.90
33139;DHT22;19501;50.948;5.316;2023-09-19T00:43:20;16.00;99.90
33139;DHT22;19501;50.948;5.316;2023-09-19T00:45:48;15.90;99.90
33139;DHT22;19501;50.948;5.316;2023-09-19T00:48:15;15.90;99.90
33139;DHT22;19501;50.948;5.316;2023-09-19T00:50:46;15.90;99.90
33139;DHT22;19501;50.948;5.316;2023-09-19T00:53:19;15.80;99.90
33139;DHT22;19501;50.948;5.316;2023-09-19T00:55:46;15.70;99.90
33139;DHT22;19501;50.948;5.316;2023-09-19T00:58:13;15.70;99.90
33139;DHT22;19501;50.948;5.316;2023-09-19T01:00:40;15.70;99.90
33139;DHT22;19501;50.948;5.316;2023-09-19T01:03:06;15.60;99.90
33139;DHT22;19501;50.948;5.316;2023-09-19T01:05:33;15.60;99.90
33139;DHT22;19501;50.948;5.316;2023-09-19T01:08:01;15.60;99.90
33139;DHT22;19501;50.948;5.316;2023-09-19T01:10:27;15.60;99.90
33139;DHT22;19501;50.948;5.316;2023-09-19T01:13:22;15.60;99.90
33139;DHT22;19501;50.948;5.316;2023-09-19T01:21:30;15.40;99.90
33139;DHT22;19501;50.948;5.316;2023-09-19T01:29:50;15.40;99.90
33139;DHT22;19501;50.948;5.316;2023-09-19T01:32:18;15.40;99.90
33139;DHT22;19501;50.948;5.316;2023-09-19T01:34:55;15.40;99.90
33139;DHT22;19501;50.948;5.316;2023-09-19T01:37:30;15.50;99.90
33139;DHT22;19501;50.948;5.316;2023-09-19T01:40:05;15.50;99.90
33139;DHT22;19501;50.948;5.316;2023-09-19T01:42:50;15.40;99.90
33139;DHT22;19501;50.948;5.316;2023-09-19T01:47:54;15.40;99.90
33139;DHT22;19501;50.948;5.316;2023-09-19T01:50:30;15.30;99.90
33139;DHT22;19501;50.948;5.316;2023-09-19T01:53:07;15.30;99.90
33139;DHT22;19501;50.948;5.316;2023-09-19T01:55:43;15.30;99.90
33139;DHT22;19501;50.948;5.316;2023-09-19T01:59:04;15.30;99.90
33139;DHT22;19501;50.948;5.316;2023-09-19T02:01:11;15.20;99.90
33139;DHT22;19501;50.948;5.316;2023-09-19T02:03:41;15.20;99.90
33139;DHT22;19501;50.948;5.316;2023-09-19T02:06:07;15.20;99.90
33139;DHT22;19501;50.948;5.316;2023-09-19T02:08:37;15.20;99.90
33139;DHT22;19501;50.948;5.316;2023-09-19T02:11:02;15.10;99.90
33139;DHT22;19501;50.948;5.316;2023-09-19T02:13:28;15.10;99.90
33139;DHT22;19501;50.948;5.316;2023-09-19T02:15:57;15.10;99.90
33139;DHT22;19501;50.948;5.316;2023-09-19T02:18:23;15.10;99.90
33139;DHT22;19501;50.948;5.316;2023-09-19T02:20:48;15.10;99.90
33139;DHT22;19501;50.948;5.316;2023-09-19T02:23:14;15.10;99.90
33139;DHT22;19501;50.948;5.316;2023-09-19T02:25:54;15.00;99.90
33139;DHT22;19501;50.948;5.316;2023-09-19T02:28:20;14.90;99.90
33139;DHT22;19501;50.948;5.316;2023-09-19T02:30:49;14.90;99.90
33139;DHT22;19501;50.948;5.316;2023-09-19T02:33:16;14.90;99.90
33139;DHT22;19501;50.948;5.316;2023-09-19T02:35:42;14.90;99.90
33139;DHT22;19501;50.948;5.316;2023-09-19T02:38:08;14.90;99.90
33139;DHT22;19501;50.948;5.316;2023-09-19T02:40:37;14.90;99.90
33139;DHT22;19501;50.948;5.316;2023-09-19T02:43:02;14.80;99.90
33139;DHT22;19501;50.948;5.316;2023-09-19T02:45:28;14.80;99.90
33139;DHT22;19501;50.948;5.316;2023-09-19T02:47:55;14.80;99.90
33139;DHT22;19501;50.948;5.316;2023-09-19T02:50:21;14.80;99.90
33139;DHT22;19501;50.948;5.316;2023-09-19T02:52:47;14.80;99.90
33139;DHT22;19501;50.948;5.316;2023-09-19T02:55:17;14.80;99.90
33139;DHT22;19501;50.948;5.316;2023-09-19T02:57:54;14.70;99.90
33139;DHT22;19501;50.948;5.316;2023-09-19T03:00:22;14.70;99.90
33139;DHT22;19501;50.948;5.316;2023-09-19T03:05:14;14.70;99.90
33139;DHT22;19501;50.948;5.316;2023-09-19T03:07:41;14.70;99.90
33139;DHT22;19501;50.948;5.316;2023-09-19T03:10:11;14.70;99.90
33139;DHT22;19501;50.948;5.316;2023-09-19T03:12:37;14.70;99.90
33139;DHT22;19501;50.948;5.316;2023-09-19T03:15:03;14.70;99.90
33139;DHT22;19501;50.948;5.316;2023-09-19T03:17:34;14.70;99.90
33139;DHT22;19501;50.948;5.316;2023-09-19T03:19:59;14.70;99.90
33139;DHT22;19501;50.948;5.316;2023-09-19T03:22:27;14.70;99.90
33139;DHT22;19501;50.948;5.316;2023-09-19T03:24:53;14.70;99.90
33139;DHT22;19501;50.948;5.316;2023-09-19T03:27:19;14.70;99.90
33139;DHT22;19501;50.948;5.316;2023-09-19T03:29:46;14.70;99.90
33139;DHT22;19501;50.948;5.316;2023-09-19T03:32:12;14.80;99.90
33139;DHT22;19501;50.948;5.316;2023-09-19T03:34:38;14.80;99.90
33139;DHT22;19501;50.948;5.316;2023-09-19T03:37:09;14.80;99.90
33139;DHT22;19501;50.948;5.316;2023-09-19T03:39:34;14.80;99.90
33139;DHT22;19501;50.948;5.316;2023-09-19T03:42:01;14.80;99.90
33139;DHT22;19501;50.948;5.316;2023-09-19T03:44:28;14.90;99.90
33139;DHT22;19501;50.948;5.316;2023-09-19T03:46:54;14.80;99.90
33139;DHT22;19501;50.948;5.316;2023-09-19T03:49:21;14.70;99.90
33139;DHT22;19501;50.948;5.316;2023-09-19T03:51:46;14.70;99.90
33139;DHT22;19501;50.948;5.316;2023-09-19T03:54:14;14.70;99.90
33139;DHT22;19501;50.948;5.316;2023-09-19T03:56:40;14.70;99.90
33139;DHT22;19501;50.948;5.316;2023-09-19T03:59:05;14.70;99.90
33139;DHT22;19501;50.948;5.316;2023-09-19T04:01:31;14.80;99.90
33139;DHT22;19501;50.948;5.316;2023-09-19T04:03:59;14.70;99.90
33139;DHT22;19501;50.948;5.316;2023-09-19T04:06:33;14.80;99.90
33139;DHT22;19501;50.948;5.316;2023-09-19T04:09:00;14.80;99.90
33139;DHT22;19501;50.948;5.316;2023-09-19T04:11:26;14.80;99.90
33139;DHT22;19501;50.948;5.316;2023-09-19T04:13:52;14.90;99.90
33139;DHT22;19501;50.948;5.316;2023-09-19T04:16:19;14.80;99.90
33139;DHT22;19501;50.948;5.316;2023-09-19T04:18:45;14.80;99.90
33139;DHT22;19501;50.948;5.316;2023-09-19T04:21:10;14.90;99.90
33139;DHT22;19501;50.948;5.316;2023-09-19T04:23:36;14.90;99.90
33139;DHT22;19501;50.948;5.316;2023-09-19T04:26:02;14.90;99.90
33139;DHT22;19501;50.948;5.316;2023-09-19T04:28:30;14.90;99.90
33139;DHT22;19501;50.948;5.316;2023-09-19T04:30:56;15.00;99.90
33139;DHT22;19501;50.948;5.316;2023-09-19T04:33:23;15.00;99.90
33139;DHT22;19501;50.948;5.316;2023-09-19T04:35:51;15.10;99.90
33139;DHT22;19501;50.948;5.316;2023-09-19T04:38:18;15.20;99.90
33139;DHT22;19501;50.948;5.316;2023-09-19T04:40:45;15.30;99.90
33139;DHT22;19501;50.948;5.316;2023-09-19T04:43:11;15.20;99.90
33139;DHT22;19501;50.948;5.316;2023-09-19T04:45:41;15.20;99.90
33139;DHT22;19501;50.948;5.316;2023-09-19T04:48:06;15.10;99.90
33139;DHT22;19501;50.948;5.316;2023-09-19T04:50:34;14.80;99.90
33139;DHT22;19501;50.948;5.316;2023-09-19T04:53:02;14.80;99.90
33139;DHT22;19501;50.948;5.316;2023-09-19T04:55:32;14.70;99.90
33139;DHT22;19501;50.948;5.316;2023-09-19T04:57:58;14.70;99.90
33139;DHT22;19501;50.948;5.316;2023-09-19T05:00:24;14.70;99.90
33139;DHT22;19501;50.948;5.316;2023-09-19T05:02:50;14.60;99.90
33139;DHT22;19501;50.948;5.316;2023-09-19T05:05:17;14.70;99.90
33139;DHT22;19501;50.948;5.316;2023-09-19T05:07:43;14.60;99.90
33139;DHT22;19501;50.948;5.316;2023-09-19T05:10:09;14.60;99.90
33139;DHT22;19501;50.948;5.316;2023-09-19T05:12:40;14.60;99.90
33139;DHT22;19501;50.948;5.316;2023-09-19T05:15:06;14.60;99.90
33139;DHT22;19501;50.948;5.316;2023-09-19T05:17:33;14.60;99.90
33139;DHT22;19501;50.948;5.316;2023-09-19T05:20:00;14.60;99.90
33139;DHT22;19501;50.948;5.316;2023-09-19T05:22:50;14.50;99.90
33139;DHT22;19501;50.948;5.316;2023-09-19T05:25:16;14.50;99.90
33139;DHT22;19501;50.948;5.316;2023-09-19T05:27:43;14.60;99.90
33139;DHT22;19501;50.948;5.316;2023-09-19T05:30:09;14.60;99.90
33139;DHT22;19501;50.948;5.316;2023-09-19T05:32:35;14.50;99.90
33139;DHT22;19501;50.948;5.316;2023-09-19T05:35:01;14.50;99.90
33139;DHT22;19501;50.948;5.316;2023-09-19T05:37:26;14.50;99.90
33139;DHT22;19501;50.948;5.316;2023-09-19T05:39:52;14.50;99.90
33139;DHT22;19501;50.948;5.316;2023-09-19T05:42:19;14.40;99.90
33139;DHT22;19501;50.948;5.316;2023-09-19T05:44:45;14.40;99.90
33139;DHT22;19501;50.948;5.316;2023-09-19T05:47:10;14.40;99.90
33139;DHT22;19501;50.948;5.316;2023-09-19T05:49:36;14.40;99.90
33139;DHT22;19501;50.948;5.316;2023-09-19T05:52:07;14.40;99.90
33139;DHT22;19501;50.948;5.316;2023-09-19T05:54:35;14.50;99.90
33139;DHT22;19501;50.948;5.316;2023-09-19T05:57:03;14.40;99.90
33139;DHT22;19501;50.948;5.316;2023-09-19T05:59:28;14.40;99.90
33139;DHT22;19501;50.948;5.316;2023-09-19T06:01:54;14.40;99.90
33139;DHT22;19501;50.948;5.316;2023-09-19T06:04:20;14.40;99.90
33139;DHT22;19501;50.948;5.316;2023-09-19T06:06:47;14.40;99.90
33139;DHT22;19501;50.948;5.316;2023-09-19T06:09:14;14.50;99.90
33139;DHT22;19501;50.948;5.316;2023-09-19T06:11:42;14.40;99.90
33139;DHT22;19501;50.948;5.316;2023-09-19T06:14:07;14.40;99.90
33139;DHT22;19501;50.948;5.316;2023-09-19T06:16:36;14.50;99.90
33139;DHT22;19501;50.948;5.316;2023-09-19T06:19:03;14.50;99.90
33139;DHT22;19501;50.948;5.316;2023-09-19T06:21:32;14.50;99.90
33139;DHT22;19501;50.948;5.316;2023-09-19T06:23:57;14.60;99.90
33139;DHT22;19501;50.948;5.316;2023-09-19T06:26:23;14.50;99.90
33139;DHT22;19501;50.948;5.316;2023-09-19T06:28:52;14.60;99.90
33139;DHT22;19501;50.948;5.316;2023-09-19T06:31:17;14.60;99.90
33139;DHT22;19501;50.948;5.316;2023-09-19T06:33:43;14.60;99.90
33139;DHT22;19501;50.948;5.316;2023-09-19T06:36:09;14.60;99.90
33139;DHT22;19501;50.948;5.316;2023-09-19T06:38:35;14.60;99.90
33139;DHT22;19501;50.948;5.316;2023-09-19T06:41:02;14.70;99.90
33139;DHT22;19501;50.948;5.316;2023-09-19T06:43:32;14.70;99.90
33139;DHT22;19501;50.948;5.316;2023-09-19T06:45:59;14.70;99.90
33139;DHT22;19501;50.948;5.316;2023-09-19T06:48:26;14.80;99.90
33139;DHT22;19501;50.948;5.316;2023-09-19T06:50:53;14.80;99.90
33139;DHT22;19501;50.948;5.316;2023-09-19T06:53:20;14.90;99.90
33139;DHT22;19501;50.948;5.316;2023-09-19T06:55:46;14.90;99.90
33139;DHT22;19501;50.948;5.316;2023-09-19T06:58:13;14.90;99.90
33139;DHT22;19501;50.948;5.316;2023-09-19T07:00:38;14.90;99.90
33139;DHT22;19501;50.948;5.316;2023-09-19T07:03:06;15.00;99.90
33139;DHT22;19501;50.948;5.316;2023-09-19T07:05:34;15.10;99.90
33139;DHT22;19501;50.948;5.316;2023-09-19T07:08:07;15.10;99.90
33139;DHT22;19501;50.948;5.316;2023-09-19T07:10:35;15.20;99.90
33139;DHT22;19501;50.948;5.316;2023-09-19T07:13:05;15.30;99.90
33139;DHT22;19501;50.948;5.316;2023-09-19T07:15:39;15.40;99.90
33139;DHT22;19501;50.948;5.316;2023-09-19T07:18:09;15.50;99.90
33139;DHT22;19501;50.948;5.316;2023-09-19T07:20:36;15.40;99.90
33139;DHT22;19501;50.948;5.316;2023-09-19T07:23:02;15.40;99.90
33139;DHT22;19501;50.948;5.316;2023-09-19T07:25:28;15.40;99.90
33139;DHT22;19501;50.948;5.316;2023-09-19T07:27:57;15.50;99.90
33139;DHT22;19501;50.948;5.316;2023-09-19T07:30:27;15.50;99.90
33139;DHT22;19501;50.948;5.316;2023-09-19T07:32:53;15.40;99.90
33139;DHT22;19501;50.948;5.316;2023-09-19T07:35:19;15.60;99.90
33139;DHT22;19501;50.948;5.316;2023-09-19T07:37:48;15.60;99.90
33139;DHT22;19501;50.948;5.316;2023-09-19T07:40:15;15.60;99.90
33139;DHT22;19501;50.948;5.316;2023-09-19T07:42:41;15.50;99.90
33139;DHT22;19501;50.948;5.316;2023-09-19T07:45:07;15.60;99.90
33139;DHT22;19501;50.948;5.316;2023-09-19T07:47:33;15.70;99.90
33139;DHT22;19501;50.948;5.316;2023-09-19T07:50:00;15.60;99.90
33139;DHT22;19501;50.948;5.316;2023-09-19T07:52:29;15.70;99.90
33139;DHT22;19501;50.948;5.316;2023-09-19T07:54:55;15.70;99.90
33139;DHT22;19501;50.948;5.316;2023-09-19T07:57:26;15.80;99.90
33139;DHT22;19501;50.948;5.316;2023-09-19T07:59:53;15.80;99.90
33139;DHT22;19501;50.948;5.316;2023-09-19T08:02:19;15.80;99.90
33139;DHT22;19501;50.948;5.316;2023-09-19T08:04:46;15.90;99.90
33139;DHT22;19501;50.948;5.316;2023-09-19T08:07:12;15.90;99.90
33139;DHT22;19501;50.948;5.316;2023-09-19T08:09:38;16.00;99.90
33139;DHT22;19501;50.948;5.316;2023-09-19T08:12:05;16.00;99.90
33139;DHT22;19501;50.948;5.316;2023-09-19T08:14:35;16.00;99.90
33139;DHT22;19501;50.948;5.316;2023-09-19T08:17:01;16.10;99.90
33139;DHT22;19501;50.948;5.316;2023-09-19T08:19:30;16.20;99.90
33139;DHT22;19501;50.948;5.316;2023-09-19T08:21:58;16.30;99.90
33139;DHT22;19501;50.948;5.316;2023-09-19T08:24:28;16.40;99.90
33139;DHT22;19501;50.948;5.316;2023-09-19T08:26:55;16.30;99.90
33139;DHT22;19501;50.948;5.316;2023-09-19T08:29:21;16.40;99.90
33139;DHT22;19501;50.948;5.316;2023-09-19T08:31:54;16.50;99.90
33139;DHT22;19501;50.948;5.316;2023-09-19T08:34:19;16.60;99.90
33139;DHT22;19501;50.948;5.316;2023-09-19T08:36:46;16.60;99.90
33139;DHT22;19501;50.948;5.316;2023-09-19T08:39:13;16.60;99.90
33139;DHT22;19501;50.948;5.316;2023-09-19T08:41:39;16.60;99.90
33139;DHT22;19501;50.948;5.316;2023-09-19T08:44:05;16.70;99.90
33139;DHT22;19501;50.948;5.316;2023-09-19T08:46:34;16.60;99.90
33139;DHT22;19501;50.948;5.316;2023-09-19T08:49:05;16.60;99.90
33139;DHT22;19501;50.948;5.316;2023-09-19T08:51:43;16.70;99.90
33139;DHT22;19501;50.948;5.316;2023-09-19T08:54:33;16.70;99.90
33139;DHT22;19501;50.948;5.316;2023-09-19T08:57:05;16.70;99.90
33139;DHT22;19501;50.948;5.316;2023-09-19T08:59:33;16.80;99.90
33139;DHT22;19501;50.948;5.316;2023-09-19T09:02:02;16.80;99.90
33139;DHT22;19501;50.948;5.316;2023-09-19T09:04:29;16.90;99.90
33139;DHT22;19501;50.948;5.316;2023-09-19T09:06:56;16.90;99.90
33139;DHT22;19501;50.948;5.316;2023-09-19T09:09:23;16.90;99.90
33139;DHT22;19501;50.948;5.316;2023-09-19T09:11:50;16.90;99.90
33139;DHT22;19501;50.948;5.316;2023-09-19T09:14:19;17.10;99.90
33139;DHT22;19501;50.948;5.316;2023-09-19T09:16:46;17.10;99.90
33139;DHT22;19501;50.948;5.316;2023-09-19T09:19:14;17.10;99.90
33139;DHT22;19501;50.948;5.316;2023-09-19T09:21:41;17.10;99.90
33139;DHT22;19501;50.948;5.316;2023-09-19T09:24:26;17.10;99.90
33139;DHT22;19501;50.948;5.316;2023-09-19T09:26:53;17.20;99.90
33139;DHT22;19501;50.948;5.316;2023-09-19T09:29:45;17.30;99.90
33139;DHT22;19501;50.948;5.316;2023-09-19T09:32:37;17.30;99.90
33139;DHT22;19501;50.948;5.316;2023-09-19T09:35:07;17.40;99.90
33139;DHT22;19501;50.948;5.316;2023-09-19T09:37:36;17.70;99.90
33139;DHT22;19501;50.948;5.316;2023-09-19T09:40:04;17.80;99.90
33139;DHT22;19501;50.948;5.316;2023-09-19T09:42:39;18.00;99.90
33139;DHT22;19501;50.948;5.316;2023-09-19T09:47:48;18.00;99.90
33139;DHT22;19501;50.948;5.316;2023-09-19T09:50:35;18.00;99.90
33139;DHT22;19501;50.948;5.316;2023-09-19T09:53:26;18.10;99.90
33139;DHT22;19501;50.948;5.316;2023-09-19T09:55:58;18.00;99.90
33139;DHT22;19501;50.948;5.316;2023-09-19T09:58:25;18.00;99.90
33139;DHT22;19501;50.948;5.316;2023-09-19T10:00:58;18.00;99.90
33139;DHT22;19501;50.948;5.316;2023-09-19T10:03:39;18.00;99.90
33139;DHT22;19501;50.948;5.316;2023-09-19T10:06:10;17.90;99.90
33139;DHT22;19501;50.948;5.316;2023-09-19T10:09:05;18.10;99.90
33139;DHT22;19501;50.948;5.316;2023-09-19T10:11:43;18.00;99.90
33139;DHT22;19501;50.948;5.316;2023-09-19T10:14:11;18.00;99.90
33139;DHT22;19501;50.948;5.316;2023-09-19T10:16:41;18.10;99.90
33139;DHT22;19501;50.948;5.316;2023-09-19T10:19:11;17.80;99.90
33139;DHT22;19501;50.948;5.316;2023-09-19T10:21:39;17.90;99.90
33139;DHT22;19501;50.948;5.316;2023-09-19T10:24:05;18.10;99.90
33139;DHT22;19501;50.948;5.316;2023-09-19T10:26:34;18.10;99.90
33139;DHT22;19501;50.948;5.316;2023-09-19T10:29:01;18.10;99.90
33139;DHT22;19501;50.948;5.316;2023-09-19T10:31:29;18.20;99.90
33139;DHT22;19501;50.948;5.316;2023-09-19T10:34:03;18.10;99.90
33139;DHT22;19501;50.948;5.316;2023-09-19T10:36:33;18.20;99.90
33139;DHT22;19501;50.948;5.316;2023-09-19T10:39:02;18.30;99.90
33139;DHT22;19501;50.948;5.316;2023-09-19T10:41:32;18.40;99.90
33139;DHT22;19501;50.948;5.316;2023-09-19T10:44:03;18.60;99.90
33139;DHT22;19501;50.948;5.316;2023-09-19T10:46:32;18.70;99.90
33139;DHT22;19501;50.948;5.316;2023-09-19T10:49:01;19.00;99.90
33139;DHT22;19501;50.948;5.316;2023-09-19T10:51:39;19.10;99.90
33139;DHT22;19501;50.948;5.316;2023-09-19T10:54:10;19.30;99.90
33139;DHT22;19501;50.948;5.316;2023-09-19T10:56:51;19.50;99.90
33139;DHT22;19501;50.948;5.316;2023-09-19T10:59:18;19.40;99.90
33139;DHT22;19501;50.948;5.316;2023-09-19T11:01:49;19.30;99.90
33139;DHT22;19501;50.948;5.316;2023-09-19T11:09:54;19.80;99.90
33139;DHT22;19501;50.948;5.316;2023-09-19T11:15:03;19.80;99.90
33139;DHT22;19501;50.948;5.316;2023-09-19T11:17:40;20.00;99.90
33139;DHT22;19501;50.948;5.316;2023-09-19T11:30:46;20.60;99.90
33139;DHT22;19501;50.948;5.316;2023-09-19T11:33:26;20.60;99.90
33139;DHT22;19501;50.948;5.316;2023-09-19T11:36:09;20.10;99.90
33139;DHT22;19501;50.948;5.316;2023-09-19T11:43:49;20.30;99.90
33139;DHT22;19501;50.948;5.316;2023-09-19T11:46:17;20.40;99.90
33139;DHT22;19501;50.948;5.316;2023-09-19T11:48:48;20.20;99.90
33139;DHT22;19501;50.948;5.316;2023-09-19T11:51:22;20.60;99.90
33139;DHT22;19501;50.948;5.316;2023-09-19T11:53:51;20.70;99.90
33139;DHT22;19501;50.948;5.316;2023-09-19T11:56:20;20.50;99.90
33139;DHT22;19501;50.948;5.316;2023-09-19T11:58:49;20.10;99.90
33139;DHT22;19501;50.948;5.316;2023-09-19T12:01:32;20.40;99.90
33139;DHT22;19501;50.948;5.316;2023-09-19T12:04:01;21.30;99.90
33139;DHT22;19501;50.948;5.316;2023-09-19T12:06:28;22.10;99.90
33139;DHT22;19501;50.948;5.316;2023-09-19T12:09:04;21.70;99.90
33139;DHT22;19501;50.948;5.316;2023-09-19T12:11:41;21.70;99.90
33139;DHT22;19501;50.948;5.316;2023-09-19T12:14:09;21.50;99.90
33139;DHT22;19501;50.948;5.316;2023-09-19T12:16:35;22.10;99.90
33139;DHT22;19501;50.948;5.316;2023-09-19T12:19:21;21.90;99.90
33139;DHT22;19501;50.948;5.316;2023-09-19T12:24:24;20.70;99.90
33139;DHT22;19501;50.948;5.316;2023-09-19T12:26:52;20.50;99.90
33139;DHT22;19501;50.948;5.316;2023-09-19T12:29:19;20.50;99.90
33139;DHT22;19501;50.948;5.316;2023-09-19T12:34:21;20.20;99.90
33139;DHT22;19501;50.948;5.316;2023-09-19T12:36:48;20.00;99.90
33139;DHT22;19501;50.948;5.316;2023-09-19T12:39:24;20.10;99.90
33139;DHT22;19501;50.948;5.316;2023-09-19T12:41:51;20.40;99.90
33139;DHT22;19501;50.948;5.316;2023-09-19T12:44:19;20.80;99.90
33139;DHT22;19501;50.948;5.316;2023-09-19T12:46:45;21.40;99.90
33139;DHT22;19501;50.948;5.316;2023-09-19T12:49:17;21.40;99.90
33139;DHT22;19501;50.948;5.316;2023-09-19T12:51:45;21.00;99.90
33139;DHT22;19501;50.948;5.316;2023-09-19T12:54:11;20.90;99.90
33139;DHT22;19501;50.948;5.316;2023-09-19T12:56:40;20.40;99.90
33139;DHT22;19501;50.948;5.316;2023-09-19T12:59:13;20.00;99.90
33139;DHT22;19501;50.948;5.316;2023-09-19T13:01:42;19.90;99.90
33139;DHT22;19501;50.948;5.316;2023-09-19T13:04:20;20.00;99.90
33139;DHT22;19501;50.948;5.316;2023-09-19T13:06:53;19.90;99.90
33139;DHT22;19501;50.948;5.316;2023-09-19T13:09:21;20.00;99.90
33139;DHT22;19501;50.948;5.316;2023-09-19T13:11:48;20.10;99.90
33139;DHT22;19501;50.948;5.316;2023-09-19T13:14:22;20.20;99.90
33139;DHT22;19501;50.948;5.316;2023-09-19T13:19:41;20.20;99.90
33139;DHT22;19501;50.948;5.316;2023-09-19T13:25:08;20.10;99.90
33139;DHT22;19501;50.948;5.316;2023-09-19T13:27:37;19.90;99.90
33139;DHT22;19501;50.948;5.316;2023-09-19T13:30:03;19.90;99.90
33139;DHT22;19501;50.948;5.316;2023-09-19T13:32:32;19.90;99.90
33139;DHT22;19501;50.948;5.316;2023-09-19T13:34:58;20.00;99.90
33139;DHT22;19501;50.948;5.316;2023-09-19T13:37:24;20.20;99.90
33139;DHT22;19501;50.948;5.316;2023-09-19T13:39:52;20.10;99.90
33139;DHT22;19501;50.948;5.316;2023-09-19T13:42:17;20.00;99.90
33139;DHT22;19501;50.948;5.316;2023-09-19T13:44:44;19.90;99.90
33139;DHT22;19501;50.948;5.316;2023-09-19T13:47:09;19.90;99.90
33139;DHT22;19501;50.948;5.316;2023-09-19T13:49:36;20.10;99.90
33139;DHT22;19501;50.948;5.316;2023-09-19T13:52:02;20.20;99.90
33139;DHT22;19501;50.948;5.316;2023-09-19T13:54:33;20.30;99.90
33139;DHT22;19501;50.948;5.316;2023-09-19T13:56:58;20.20;99.90
33139;DHT22;19501;50.948;5.316;2023-09-19T13:59:24;20.00;99.90
33139;DHT22;19501;50.948;5.316;2023-09-19T14:01:50;19.80;99.90
33139;DHT22;19501;50.948;5.316;2023-09-19T14:04:16;19.70;99.90
33139;DHT22;19501;50.948;5.316;2023-09-19T14:06:42;19.70;99.90
33139;DHT22;19501;50.948;5.316;2023-09-19T14:09:08;19.60;99.90
33139;DHT22;19501;50.948;5.316;2023-09-19T14:11:36;19.70;99.90
33139;DHT22;19501;50.948;5.316;2023-09-19T14:14:01;19.70;99.90
33139;DHT22;19501;50.948;5.316;2023-09-19T14:16:27;19.60;99.90
33139;DHT22;19501;50.948;5.316;2023-09-19T14:18:56;19.60;99.90
33139;DHT22;19501;50.948;5.316;2023-09-19T14:21:23;19.60;99.90
33139;DHT22;19501;50.948;5.316;2023-09-19T14:23:49;19.60;99.90
33139;DHT22;19501;50.948;5.316;2023-09-19T14:26:15;19.60;99.90
33139;DHT22;19501;50.948;5.316;2023-09-19T14:28:43;19.60;99.90
33139;DHT22;19501;50.948;5.316;2023-09-19T14:31:11;19.60;99.90
33139;DHT22;19501;50.948;5.316;2023-09-19T14:33:37;19.60;99.90
33139;DHT22;19501;50.948;5.316;2023-09-19T14:36:08;19.60;99.90
33139;DHT22;19501;50.948;5.316;2023-09-19T14:38:35;19.60;99.90
33139;DHT22;19501;50.948;5.316;2023-09-19T14:41:07;19.70;99.90
33139;DHT22;19501;50.948;5.316;2023-09-19T14:43:34;19.70;99.90
33139;DHT22;19501;50.948;5.316;2023-09-19T14:46:05;19.80;99.90
33139;DHT22;19501;50.948;5.316;2023-09-19T14:48:36;19.90;99.90
33139;DHT22;19501;50.948;5.316;2023-09-19T14:51:05;19.80;99.90
33139;DHT22;19501;50.948;5.316;2023-09-19T14:53:32;20.00;99.90
33139;DHT22;19501;50.948;5.316;2023-09-19T14:56:02;20.00;99.90
33139;DHT22;19501;50.948;5.316;2023-09-19T14:58:29;19.80;99.90
33139;DHT22;19501;50.948;5.316;2023-09-19T15:01:06;19.80;99.90
33139;DHT22;19501;50.948;5.316;2023-09-19T15:03:33;19.80;99.90
33139;DHT22;19501;50.948;5.316;2023-09-19T15:06:03;19.80;99.90
33139;DHT22;19501;50.948;5.316;2023-09-19T15:08:31;20.00;99.90
33139;DHT22;19501;50.948;5.316;2023-09-19T15:10:56;19.80;99.90
33139;DHT22;19501;50.948;5.316;2023-09-19T15:13:24;19.90;99.90
33139;DHT22;19501;50.948;5.316;2023-09-19T15:16:07;19.80;99.90
33139;DHT22;19501;50.948;5.316;2023-09-19T15:18:38;19.70;99.90
33139;DHT22;19501;50.948;5.316;2023-09-19T15:21:05;19.80;99.90
33139;DHT22;19501;50.948;5.316;2023-09-19T15:23:31;19.90;99.90
33139;DHT22;19501;50.948;5.316;2023-09-19T15:26:00;19.90;99.90
33139;DHT22;19501;50.948;5.316;2023-09-19T15:28:27;20.10;99.90
33139;DHT22;19501;50.948;5.316;2023-09-19T15:33:30;20.20;99.90
33139;DHT22;19501;50.948;5.316;2023-09-19T15:36:06;20.10;99.90
33139;DHT22;19501;50.948;5.316;2023-09-19T15:39:00;20.10;99.90
33139;DHT22;19501;50.948;5.316;2023-09-19T15:41:31;20.10;99.90
33139;DHT22;19501;50.948;5.316;2023-09-19T15:43:58;20.20;99.90
33139;DHT22;19501;50.948;5.316;2023-09-19T15:46:27;20.10;99.90
33139;DHT22;19501;50.948;5.316;2023-09-19T15:48:53;19.90;99.90
33139;DHT22;19501;50.948;5.316;2023-09-19T15:51:19;19.80;99.90
33139;DHT22;19501;50.948;5.316;2023-09-19T15:53:50;19.80;99.90
33139;DHT22;19501;50.948;5.316;2023-09-19T15:56:17;19.60;99.90
33139;DHT22;19501;50.948;5.316;2023-09-19T15:58:47;19.50;99.90
33139;DHT22;19501;50.948;5.316;2023-09-19T16:01:13;19.40;99.90
33139;DHT22;19501;50.948;5.316;2023-09-19T16:03:42;19.40;99.90
33139;DHT22;19501;50.948;5.316;2023-09-19T16:06:13;19.40;99.90
33139;DHT22;19501;50.948;5.316;2023-09-19T16:08:47;19.40;99.90
33139;DHT22;19501;50.948;5.316;2023-09-19T16:11:13;19.40;99.90
33139;DHT22;19501;50.948;5.316;2023-09-19T16:13:40;19.40;99.90
33139;DHT22;19501;50.948;5.316;2023-09-19T16:16:10;19.30;99.90
33139;DHT22;19501;50.948;5.316;2023-09-19T16:18:45;19.20;99.90
33139;DHT22;19501;50.948;5.316;2023-09-19T16:21:11;19.20;99.90
33139;DHT22;19501;50.948;5.316;2023-09-19T16:23:39;19.10;99.90
33139;DHT22;19501;50.948;5.316;2023-09-19T16:26:08;19.10;99.90
33139;DHT22;19501;50.948;5.316;2023-09-19T16:28:40;19.10;99.90
33139;DHT22;19501;50.948;5.316;2023-09-19T16:31:07;19.10;99.90
33139;DHT22;19501;50.948;5.316;2023-09-19T16:33:35;19.10;99.90
33139;DHT22;19501;50.948;5.316;2023-09-19T16:36:02;19.10;99.90
33139;DHT22;19501;50.948;5.316;2023-09-19T16:38:32;19.00;99.90